| time (UTC) | temp C | wind direction | speed KPH | gust KPH | rain 1hr cm | rain 24hr cm | rain mn cm | humidity % | barometer mb |
| 20260510223050 | 27 | 336 | 0.0 | 9.7 | 0.00 | 0.00 | 0.00 | 36 | 1013.1 |
| 20260510221559 | 27 | 336 | 0.0 | 1.6 | 0.00 | 0.00 | 0.00 | 34 | 1013.1 |
| 20260510220051 | 27 | 336 | 0.0 | 0.0 | 0.00 | 0.00 | 0.00 | 34 | 1013.0 |
| 20260510214549 | 27 | 336 | 0.0 | 0.0 | 0.00 | 0.00 | 0.00 | 34 | 1013.0 |
| 20260510213050 | 28 | 336 | 0.0 | 3.2 | 0.00 | 0.00 | 0.00 | 33 | 1013.0 |
| 20260510211544 | 27 | 336 | 0.0 | 0.0 | 0.00 | 0.00 | 0.00 | 32 | 1013.0 |
| 20260510210043 | 27 | 336 | 0.0 | 0.0 | 0.00 | 0.00 | 0.00 | 31 | 1013.1 |
| 20260510204543 | 27 | 336 | 0.0 | 1.6 | 0.00 | 0.00 | 0.00 | 35 | 1013.1 |
| 20260510203042 | 27 | 336 | 0.0 | 1.6 | 0.00 | 0.00 | 0.00 | 36 | 1013.3 |
| 20260510201540 | 27 | 336 | 0.0 | 0.0 | 0.00 | 0.00 | 0.00 | 33 | 1013.4 |
| 20260510200107 | 27 | 336 | 0.0 | 0.0 | 0.00 | 0.00 | 0.00 | 33 | 1013.6 |
| 20260510194551 | 27 | 336 | 0.0 | 6.4 | 0.00 | 0.00 | 0.00 | 34 | 1013.9 |
| 20260510193043 | 26 | 336 | 0.0 | 6.4 | 0.00 | 0.00 | 0.00 | 35 | 1014.0 |
| 20260510191541 | 26 | 341 | 0.0 | 0.0 | 0.00 | 0.00 | 0.00 | 38 | 1013.9 |
| 20260510190032 | 26 | 341 | 0.0 | 4.8 | 0.00 | 0.00 | 0.00 | 34 | 1013.9 |
| 20260510184531 | 25 | 341 | 0.0 | 0.0 | 0.00 | 0.00 | 0.00 | 32 | 1014.0 |
| 20260510183042 | 25 | 341 | 0.0 | 4.8 | 0.00 | 0.00 | 0.00 | 38 | 1014.2 |
| 20260510181529 | 25 | 341 | 0.0 | 4.8 | 0.00 | 0.00 | 0.00 | 38 | 1014.3 |
| 20260510180025 | 25 | 341 | 0.0 | 6.4 | 0.00 | 0.00 | 0.00 | 36 | 1014.5 |
| 20260510174524 | 25 | 341 | 0.0 | 6.4 | 0.00 | 0.00 | 0.00 | 39 | 1014.4 |
| 20260510173023 | 25 | 341 | 0.0 | 4.8 | 0.00 | 0.00 | 0.00 | 41 | 1014.6 |
| 20260510171522 | 25 | 341 | 3.2 | 8.0 | 0.00 | 0.00 | 0.00 | 41 | 1014.8 |
| 20260510170021 | 25 | 341 | 0.0 | 4.8 | 0.00 | 0.00 | 0.00 | 42 | 1015.0 |
| 20260510164524 | 25 | 341 | 0.0 | 4.8 | 0.00 | 0.00 | 0.00 | 50 | 1014.9 |
| 20260510163017 | 24 | 341 | 0.0 | 3.2 | 0.00 | 0.00 | 0.00 | 50 | 1015.0 |
| 20260510161516 | 24 | 341 | 0.0 | 3.2 | 0.00 | 0.00 | 0.00 | 50 | 1015.0 |
| 20260510160016 | 23 | 341 | 0.0 | 6.4 | 0.00 | 0.00 | 0.00 | 52 | 1015.2 |
| 20260510154509 | 22 | 341 | 0.0 | 4.8 | 0.00 | 0.00 | 0.00 | 50 | 1015.1 |
| 20260510153007 | 22 | 341 | 0.0 | 4.8 | 0.00 | 0.00 | 0.00 | 57 | 1015.2 |
| 20260510151504 | 21 | 341 | 0.0 | 4.8 | 0.00 | 0.00 | 0.00 | 60 | 1015.1 |
| 20260510150100 | 21 | 341 | 0.0 | 3.2 | 0.00 | 0.00 | 0.00 | 58 | 1015.1 |
| 20260510144557 | 21 | 341 | 0.0 | 4.8 | 0.00 | 0.00 | 0.00 | 61 | 1015.2 |
| 20260510143054 | 20 | 342 | 1.6 | 9.7 | 0.00 | 0.00 | 0.00 | 63 | 1015.2 |
| 20260510141600 | 20 | 346 | 3.2 | 12.9 | 0.00 | 0.00 | 0.00 | 62 | 1015.3 |
| 20260510140052 | 19 | 51 | 0.0 | 6.4 | 0.00 | 0.00 | 0.00 | 73 | 1015.2 |
| 20260510134544 | 18 | 51 | 0.0 | 0.0 | 0.00 | 0.00 | 0.00 | 80 | 1015.2 |
| 20260510133059 | 17 | 51 | 0.0 | 0.0 | 0.00 | 0.00 | 0.00 | 82 | 1015.2 |
| 20260510131545 | 17 | 51 | 0.0 | 4.8 | 0.00 | 0.00 | 0.00 | 82 | 1015.2 |
| 20260510130041 | 17 | 51 | 4.8 | 8.0 | 0.00 | 0.00 | 0.00 | 84 | 1015.2 |
| 20260510124541 | 16 | 53 | 0.0 | 0.0 | 0.00 | 0.00 | 0.00 | 87 | 1015.1 |
| 20260510123049 | 16 | 53 | 0.0 | 0.0 | 0.00 | 0.00 | 0.00 | 91 | 1015.0 |
| 20260510121535 | 15 | 55 | 0.0 | 0.0 | 0.00 | 0.00 | 0.00 | 93 | 1014.7 |
| 20260510120033 | 15 | 55 | 0.0 | 0.0 | 0.00 | 0.00 | 0.00 | 94 | 1014.3 |
| 20260510114534 | 15 | 55 | 0.0 | 0.0 | 0.00 | 0.00 | 0.00 | 95 | 1013.9 |
| 20260510113033 | 15 | 55 | 0.0 | 0.0 | 0.00 | 0.00 | 0.00 | 95 | 1013.8 |
| 20260510111527 | 15 | 55 | 0.0 | 0.0 | 0.00 | 0.00 | 0.00 | 95 | 1013.7 |
| 20260510110024 | 15 | 55 | 0.0 | 0.0 | 0.00 | 0.00 | 0.00 | 95 | 1013.5 |
| 20260510104522 | 15 | 55 | 0.0 | 0.0 | 0.00 | 0.00 | 0.00 | 95 | 1013.3 |
| 20260510103019 | 15 | 55 | 0.0 | 0.0 | 0.00 | 0.00 | 0.00 | 94 | 1012.8 |
| 20260510101518 | 15 | 55 | 0.0 | 0.0 | 0.00 | 0.00 | 0.00 | 94 | 1012.7 |
| 20260510100016 | 15 | 55 | 0.0 | 0.0 | 0.00 | 0.00 | 0.00 | 94 | 1012.4 |
| 20260510094514 | 15 | 55 | 0.0 | 0.0 | 0.00 | 0.00 | 0.00 | 94 | 1012.3 |
| 20260510093012 | 15 | 55 | 0.0 | 0.0 | 0.00 | 0.00 | 0.00 | 93 | 1012.1 |
| 20260510091512 | 15 | 55 | 0.0 | 0.0 | 0.00 | 0.00 | 0.00 | 93 | 1012.0 |
| 20260510090009 | 15 | 55 | 0.0 | 0.0 | 0.00 | 0.00 | 0.00 | 94 | 1011.9 |
| 20260510084508 | 15 | 55 | 0.0 | 0.0 | 0.00 | 0.00 | 0.00 | 93 | 1011.9 |
| 20260510083007 | 16 | 55 | 0.0 | 0.0 | 0.00 | 0.00 | 0.00 | 93 | 1011.7 |
| 20260510081510 | 16 | 55 | 0.0 | 0.0 | 0.00 | 0.00 | 0.00 | 93 | 1011.4 |
| 20260510080005 | 16 | 55 | 0.0 | 0.0 | 0.00 | 0.00 | 0.00 | 94 | 1011.3 |
| 20260510074505 | 16 | 55 | 0.0 | 0.0 | 0.00 | 0.00 | 0.00 | 94 | 1011.3 |
| 20260510073006 | 16 | 55 | 0.0 | 0.0 | 0.00 | 0.00 | 0.00 | 93 | 1011.1 |
| 20260510071502 | 16 | 55 | 0.0 | 0.0 | 0.00 | 0.00 | 0.00 | 92 | 1011.0 |
| 20260510070003 | 16 | 55 | 0.0 | 0.0 | 0.00 | 0.00 | 0.00 | 92 | 1011.1 |
| 20260510064603 | 16 | 55 | 0.0 | 0.0 | 0.00 | 0.00 | 0.00 | 92 | 1011.0 |
| 20260510063102 | 16 | 55 | 0.0 | 0.0 | 0.00 | 0.00 | 0.00 | 92 | 1010.9 |
| 20260510061600 | 16 | 55 | 0.0 | 0.0 | 0.00 | 0.00 | 0.00 | 91 | 1011.1 |
| 20260510060056 | 16 | 55 | 0.0 | 0.0 | 0.00 | 0.00 | 0.00 | 91 | 1010.9 |
| 20260510054555 | 17 | 55 | 0.0 | 0.0 | 0.00 | 0.00 | 0.00 | 90 | 1011.1 |
| 20260510053053 | 17 | 55 | 0.0 | 0.0 | 0.00 | 0.00 | 0.00 | 89 | 1011.3 |
| 20260510051555 | 17 | 55 | 0.0 | 0.0 | 0.00 | 0.00 | 0.00 | 89 | 1011.3 |
| 20260510050054 | 17 | 55 | 0.0 | 0.0 | 0.00 | 0.00 | 0.00 | 88 | 1011.5 |
| 20260510044551 | 17 | 55 | 0.0 | 0.0 | 0.00 | 0.00 | 0.00 | 87 | 1011.5 |
| 20260510043053 | 17 | 55 | 0.0 | 0.0 | 0.00 | 0.00 | 0.00 | 86 | 1011.2 |
| 20260510041548 | 17 | 55 | 0.0 | 0.0 | 0.00 | 0.00 | 0.00 | 86 | 1011.3 |
| 20260510040046 | 18 | 55 | 0.0 | 0.0 | 0.00 | 0.00 | 0.00 | 85 | 1011.4 |
| 20260510034540 | 18 | 55 | 0.0 | 0.0 | 0.00 | 0.00 | 0.00 | 84 | 1011.5 |
| 20260510033043 | 18 | 55 | 0.0 | 0.0 | 0.00 | 0.00 | 0.00 | 84 | 1011.5 |
| 20260510031550 | 18 | 55 | 0.0 | 0.0 | 0.00 | 0.00 | 0.00 | 83 | 1011.3 |
| 20260510030039 | 18 | 55 | 0.0 | 0.0 | 0.00 | 0.00 | 0.00 | 82 | 1011.3 |
| 20260510024539 | 18 | 55 | 0.0 | 0.0 | 0.00 | 0.00 | 0.00 | 82 | 1011.4 |
| 20260510023038 | 18 | 55 | 0.0 | 0.0 | 0.00 | 0.00 | 0.00 | 81 | 1011.2 |
| 20260510021540 | 19 | 55 | 0.0 | 0.0 | 0.00 | 0.00 | 0.00 | 81 | 1011.1 |
| 20260510020037 | 19 | 55 | 0.0 | 0.0 | 0.00 | 0.00 | 0.00 | 81 | 1010.9 |
| 20260510014537 | 19 | 55 | 0.0 | 0.0 | 0.00 | 0.00 | 0.00 | 80 | 1010.8 |
| 20260510013035 | 19 | 55 | 0.0 | 0.0 | 0.00 | 0.00 | 0.00 | 80 | 1010.6 |
| 20260510011535 | 20 | 55 | 0.0 | 0.0 | 0.00 | 0.00 | 0.00 | 79 | 1010.5 |
| 20260510010034 | 20 | 55 | 0.0 | 0.0 | 0.00 | 0.00 | 0.00 | 78 | 1010.1 |
| 20260510004533 | 20 | 55 | 0.0 | 0.0 | 0.00 | 0.00 | 0.00 | 77 | 1009.9 |
| 20260510003034 | 20 | 55 | 0.0 | 3.2 | 0.00 | 0.00 | 0.00 | 76 | 1009.7 |
| 20260510001533 | 20 | 54 | 0.0 | 4.8 | 0.00 | 0.00 | 0.00 | 75 | 1009.3 |
| 20260510000034 | 21 | 53 | 0.0 | 0.0 | 0.00 | 0.00 | 0.00 | 75 | 1009.1 |
| 20260509234535 | 21 | 52 | 0.0 | 0.0 | 0.00 | 0.00 | 0.00 | 74 | 1009.0 |
| 20260509233031 | 21 | 52 | 0.0 | 0.0 | 0.00 | 0.00 | 0.00 | 73 | 1009.0 |
| 20260509231531 | 21 | 52 | 0.0 | 6.4 | 0.00 | 0.00 | 0.00 | 72 | 1009.0 |
| 20260509230030 | 21 | 52 | 0.0 | 4.8 | 0.00 | 0.00 | 0.00 | 71 | 1009.1 |
| 20260509224530 | 21 | 25 | 0.0 | 6.4 | 0.00 | 0.00 | 0.00 | 70 | 1008.7 |